sensor_id;sensor_type;location;lat;lon;timestamp;P1;durP1;ratioP1;P2;durP2;ratioP2
64873;SDS011;51367;45.204;38.576;2023-06-14T00:00:58;3.70;;;3.40;;
64873;SDS011;51367;45.204;38.576;2023-06-14T00:03:24;3.58;;;3.25;;
64873;SDS011;51367;45.204;38.576;2023-06-14T00:05:51;6.78;;;3.33;;
64873;SDS011;51367;45.204;38.576;2023-06-14T00:08:17;6.25;;;3.78;;
64873;SDS011;51367;45.204;38.576;2023-06-14T00:10:44;5.80;;;3.72;;
64873;SDS011;51367;45.204;38.576;2023-06-14T00:13:10;9.20;;;3.92;;
64873;SDS011;51367;45.204;38.576;2023-06-14T00:15:37;18.52;;;6.45;;
64873;SDS011;51367;45.204;38.576;2023-06-14T00:18:04;5.68;;;4.70;;
64873;SDS011;51367;45.204;38.576;2023-06-14T00:20:31;8.25;;;5.38;;
64873;SDS011;51367;45.204;38.576;2023-06-14T00:22:59;6.95;;;5.50;;
64873;SDS011;51367;45.204;38.576;2023-06-14T00:25:25;4.40;;;4.00;;
64873;SDS011;51367;45.204;38.576;2023-06-14T00:27:52;6.05;;;5.00;;
64873;SDS011;51367;45.204;38.576;2023-06-14T00:30:18;15.70;;;5.25;;
64873;SDS011;51367;45.204;38.576;2023-06-14T00:32:45;6.13;;;5.32;;
64873;SDS011;51367;45.204;38.576;2023-06-14T00:35:12;7.68;;;5.45;;
64873;SDS011;51367;45.204;38.576;2023-06-14T00:37:38;6.88;;;6.25;;
64873;SDS011;51367;45.204;38.576;2023-06-14T00:40:05;16.35;;;6.45;;
64873;SDS011;51367;45.204;38.576;2023-06-14T00:42:32;9.60;;;8.60;;
64873;SDS011;51367;45.204;38.576;2023-06-14T00:44:59;8.38;;;7.60;;
64873;SDS011;51367;45.204;38.576;2023-06-14T00:47:25;11.82;;;8.60;;
64873;SDS011;51367;45.204;38.576;2023-06-14T00:49:53;14.65;;;8.02;;
64873;SDS011;51367;45.204;38.576;2023-06-14T00:52:22;9.65;;;7.05;;
64873;SDS011;51367;45.204;38.576;2023-06-14T00:54:50;10.15;;;7.95;;
64873;SDS011;51367;45.204;38.576;2023-06-14T00:57:16;18.17;;;6.22;;
64873;SDS011;51367;45.204;38.576;2023-06-14T01:02:10;7.85;;;5.95;;
64873;SDS011;51367;45.204;38.576;2023-06-14T01:04:36;7.60;;;5.22;;
64873;SDS011;51367;45.204;38.576;2023-06-14T01:15:27;7.07;;;5.75;;
64873;SDS011;51367;45.204;38.576;2023-06-14T01:17:56;10.20;;;5.30;;
64873;SDS011;51367;45.204;38.576;2023-06-14T01:20:32;6.13;;;4.50;;
64873;SDS011;51367;45.204;38.576;2023-06-14T01:23:03;8.55;;;5.80;;
64873;SDS011;51367;45.204;38.576;2023-06-14T01:25:29;14.82;;;5.03;;
64873;SDS011;51367;45.204;38.576;2023-06-14T01:27:57;9.35;;;4.80;;
64873;SDS011;51367;45.204;38.576;2023-06-14T01:30:25;6.63;;;4.40;;
64873;SDS011;51367;45.204;38.576;2023-06-14T01:32:53;25.50;;;5.35;;
64873;SDS011;51367;45.204;38.576;2023-06-14T01:35:21;8.95;;;5.10;;
64873;SDS011;51367;45.204;38.576;2023-06-14T01:37:47;8.48;;;4.95;;
64873;SDS011;51367;45.204;38.576;2023-06-14T01:40:15;13.95;;;4.53;;
64873;SDS011;51367;45.204;38.576;2023-06-14T01:42:41;10.38;;;4.50;;
64873;SDS011;51367;45.204;38.576;2023-06-14T01:45:09;9.00;;;5.07;;
64873;SDS011;51367;45.204;38.576;2023-06-14T01:47:36;9.18;;;5.15;;
64873;SDS011;51367;45.204;38.576;2023-06-14T01:50:03;6.95;;;4.63;;
64873;SDS011;51367;45.204;38.576;2023-06-14T01:52:30;12.05;;;4.50;;
64873;SDS011;51367;45.204;38.576;2023-06-14T01:54:56;8.57;;;5.30;;
64873;SDS011;51367;45.204;38.576;2023-06-14T01:57:23;6.57;;;4.40;;
64873;SDS011;51367;45.204;38.576;2023-06-14T01:59:52;6.00;;;4.05;;
64873;SDS011;51367;45.204;38.576;2023-06-14T02:02:18;6.40;;;5.03;;
64873;SDS011;51367;45.204;38.576;2023-06-14T02:04:44;5.43;;;3.60;;
64873;SDS011;51367;45.204;38.576;2023-06-14T02:07:11;6.22;;;4.43;;
64873;SDS011;51367;45.204;38.576;2023-06-14T02:09:41;4.47;;;4.07;;
64873;SDS011;51367;45.204;38.576;2023-06-14T02:12:07;5.47;;;4.03;;
64873;SDS011;51367;45.204;38.576;2023-06-14T02:14:33;8.55;;;4.80;;
64873;SDS011;51367;45.204;38.576;2023-06-14T02:16:59;6.78;;;4.68;;
64873;SDS011;51367;45.204;38.576;2023-06-14T02:19:26;5.95;;;4.68;;
64873;SDS011;51367;45.204;38.576;2023-06-14T02:21:52;6.80;;;4.22;;
64873;SDS011;51367;45.204;38.576;2023-06-14T02:24:18;7.18;;;4.03;;
64873;SDS011;51367;45.204;38.576;2023-06-14T02:26:44;8.90;;;4.57;;
64873;SDS011;51367;45.204;38.576;2023-06-14T02:29:14;6.75;;;4.25;;
64873;SDS011;51367;45.204;38.576;2023-06-14T02:31:41;5.45;;;4.68;;
64873;SDS011;51367;45.204;38.576;2023-06-14T02:34:07;4.60;;;4.15;;
64873;SDS011;51367;45.204;38.576;2023-06-14T02:36:35;6.85;;;4.60;;
64873;SDS011;51367;45.204;38.576;2023-06-14T02:39:11;8.45;;;4.90;;
64873;SDS011;51367;45.204;38.576;2023-06-14T02:41:37;13.95;;;4.88;;
64873;SDS011;51367;45.204;38.576;2023-06-14T02:44:03;8.00;;;4.10;;
64873;SDS011;51367;45.204;38.576;2023-06-14T02:46:29;4.68;;;3.95;;
64873;SDS011;51367;45.204;38.576;2023-06-14T02:48:55;5.40;;;4.85;;
64873;SDS011;51367;45.204;38.576;2023-06-14T02:51:21;5.18;;;4.00;;
64873;SDS011;51367;45.204;38.576;2023-06-14T02:53:47;5.70;;;4.85;;
64873;SDS011;51367;45.204;38.576;2023-06-14T02:56:13;6.75;;;4.53;;
64873;SDS011;51367;45.204;38.576;2023-06-14T02:58:39;8.13;;;4.95;;
64873;SDS011;51367;45.204;38.576;2023-06-14T03:01:06;6.25;;;5.20;;
64873;SDS011;51367;45.204;38.576;2023-06-14T03:03:34;8.48;;;5.15;;
64873;SDS011;51367;45.204;38.576;2023-06-14T03:06:00;7.78;;;5.50;;
64873;SDS011;51367;45.204;38.576;2023-06-14T03:08:32;6.47;;;5.63;;
64873;SDS011;51367;45.204;38.576;2023-06-14T03:11:07;7.47;;;6.35;;
64873;SDS011;51367;45.204;38.576;2023-06-14T03:13:35;7.47;;;6.50;;
64873;SDS011;51367;45.204;38.576;2023-06-14T03:16:03;8.48;;;6.47;;
64873;SDS011;51367;45.204;38.576;2023-06-14T03:18:32;11.70;;;6.38;;
64873;SDS011;51367;45.204;38.576;2023-06-14T03:21:02;7.35;;;6.35;;
64873;SDS011;51367;45.204;38.576;2023-06-14T03:23:30;9.40;;;7.20;;
64873;SDS011;51367;45.204;38.576;2023-06-14T03:25:57;9.45;;;6.03;;
64873;SDS011;51367;45.204;38.576;2023-06-14T03:28:23;6.35;;;5.75;;
64873;SDS011;51367;45.204;38.576;2023-06-14T03:30:50;8.90;;;5.88;;
64873;SDS011;51367;45.204;38.576;2023-06-14T03:33:17;10.05;;;5.53;;
64873;SDS011;51367;45.204;38.576;2023-06-14T03:35:43;7.78;;;5.68;;
64873;SDS011;51367;45.204;38.576;2023-06-14T03:38:10;6.10;;;5.53;;
64873;SDS011;51367;45.204;38.576;2023-06-14T03:40:36;11.93;;;4.93;;
64873;SDS011;51367;45.204;38.576;2023-06-14T03:43:04;8.50;;;5.35;;
64873;SDS011;51367;45.204;38.576;2023-06-14T03:45:30;10.00;;;5.93;;
64873;SDS011;51367;45.204;38.576;2023-06-14T03:47:58;12.05;;;6.10;;
64873;SDS011;51367;45.204;38.576;2023-06-14T03:50:26;14.30;;;5.20;;
64873;SDS011;51367;45.204;38.576;2023-06-14T03:52:52;9.30;;;6.00;;
64873;SDS011;51367;45.204;38.576;2023-06-14T03:55:19;7.22;;;5.60;;
64873;SDS011;51367;45.204;38.576;2023-06-14T03:57:46;10.15;;;4.40;;
64873;SDS011;51367;45.204;38.576;2023-06-14T04:00:16;8.20;;;5.90;;
64873;SDS011;51367;45.204;38.576;2023-06-14T04:02:43;5.85;;;5.25;;
64873;SDS011;51367;45.204;38.576;2023-06-14T04:05:10;7.18;;;4.47;;
64873;SDS011;51367;45.204;38.576;2023-06-14T04:07:39;7.55;;;4.30;;
64873;SDS011;51367;45.204;38.576;2023-06-14T04:10:10;10.55;;;5.05;;
64873;SDS011;51367;45.204;38.576;2023-06-14T04:12:38;5.50;;;4.25;;
64873;SDS011;51367;45.204;38.576;2023-06-14T04:15:04;4.07;;;3.60;;
64873;SDS011;51367;45.204;38.576;2023-06-14T04:17:34;7.30;;;3.80;;
64873;SDS011;51367;45.204;38.576;2023-06-14T04:20:02;4.63;;;4.18;;
64873;SDS011;51367;45.204;38.576;2023-06-14T04:22:30;8.77;;;4.13;;
64873;SDS011;51367;45.204;38.576;2023-06-14T04:24:58;9.48;;;4.20;;
64873;SDS011;51367;45.204;38.576;2023-06-14T04:27:26;7.38;;;3.95;;
64873;SDS011;51367;45.204;38.576;2023-06-14T04:29:53;5.65;;;3.63;;
64873;SDS011;51367;45.204;38.576;2023-06-14T04:32:28;6.57;;;3.50;;
64873;SDS011;51367;45.204;38.576;2023-06-14T04:35:06;7.05;;;4.43;;
64873;SDS011;51367;45.204;38.576;2023-06-14T04:37:33;19.40;;;5.20;;
64873;SDS011;51367;45.204;38.576;2023-06-14T04:40:00;9.95;;;4.75;;
64873;SDS011;51367;45.204;38.576;2023-06-14T04:42:26;10.15;;;4.05;;
64873;SDS011;51367;45.204;38.576;2023-06-14T04:44:56;5.18;;;4.38;;
64873;SDS011;51367;45.204;38.576;2023-06-14T04:47:23;11.93;;;5.55;;
64873;SDS011;51367;45.204;38.576;2023-06-14T04:49:59;4.47;;;3.90;;
64873;SDS011;51367;45.204;38.576;2023-06-14T04:52:29;7.70;;;5.13;;
64873;SDS011;51367;45.204;38.576;2023-06-14T04:54:56;9.32;;;5.07;;
64873;SDS011;51367;45.204;38.576;2023-06-14T04:57:22;9.38;;;5.45;;
64873;SDS011;51367;45.204;38.576;2023-06-14T04:59:54;6.05;;;5.35;;
64873;SDS011;51367;45.204;38.576;2023-06-14T05:02:21;15.07;;;5.05;;
64873;SDS011;51367;45.204;38.576;2023-06-14T05:04:49;18.77;;;5.10;;
64873;SDS011;51367;45.204;38.576;2023-06-14T05:07:16;5.13;;;4.57;;
64873;SDS011;51367;45.204;38.576;2023-06-14T05:09:42;5.88;;;5.20;;
64873;SDS011;51367;45.204;38.576;2023-06-14T05:12:11;17.95;;;5.65;;
64873;SDS011;51367;45.204;38.576;2023-06-14T05:14:37;9.02;;;6.10;;
64873;SDS011;51367;45.204;38.576;2023-06-14T05:17:05;10.07;;;6.47;;
64873;SDS011;51367;45.204;38.576;2023-06-14T05:19:31;8.02;;;6.07;;
64873;SDS011;51367;45.204;38.576;2023-06-14T05:22:15;9.20;;;6.53;;
64873;SDS011;51367;45.204;38.576;2023-06-14T05:24:41;8.65;;;5.78;;
64873;SDS011;51367;45.204;38.576;2023-06-14T05:27:07;10.32;;;6.85;;
64873;SDS011;51367;45.204;38.576;2023-06-14T05:29:33;6.72;;;6.07;;
64873;SDS011;51367;45.204;38.576;2023-06-14T05:31:59;8.73;;;6.35;;
64873;SDS011;51367;45.204;38.576;2023-06-14T05:37:28;8.60;;;5.40;;
64873;SDS011;51367;45.204;38.576;2023-06-14T05:39:54;9.25;;;5.75;;
64873;SDS011;51367;45.204;38.576;2023-06-14T05:42:20;8.73;;;5.60;;
64873;SDS011;51367;45.204;38.576;2023-06-14T05:44:46;7.43;;;5.47;;
64873;SDS011;51367;45.204;38.576;2023-06-14T05:47:11;15.05;;;5.53;;
64873;SDS011;51367;45.204;38.576;2023-06-14T05:52:40;14.23;;;4.93;;
64873;SDS011;51367;45.204;38.576;2023-06-14T05:55:06;9.85;;;5.57;;
64873;SDS011;51367;45.204;38.576;2023-06-14T05:57:32;5.80;;;5.20;;
64873;SDS011;51367;45.204;38.576;2023-06-14T05:59:58;7.05;;;5.65;;
64873;SDS011;51367;45.204;38.576;2023-06-14T06:02:24;6.88;;;5.22;;
64873;SDS011;51367;45.204;38.576;2023-06-14T06:04:50;9.48;;;5.20;;
64873;SDS011;51367;45.204;38.576;2023-06-14T06:07:16;6.35;;;4.40;;
64873;SDS011;51367;45.204;38.576;2023-06-14T06:09:42;5.85;;;4.57;;
64873;SDS011;51367;45.204;38.576;2023-06-14T06:12:08;6.80;;;4.43;;
64873;SDS011;51367;45.204;38.576;2023-06-14T06:14:35;4.47;;;4.07;;
64873;SDS011;51367;45.204;38.576;2023-06-14T06:17:01;8.38;;;4.03;;
64873;SDS011;51367;45.204;38.576;2023-06-14T06:19:27;6.72;;;4.88;;
64873;SDS011;51367;45.204;38.576;2023-06-14T06:21:53;5.72;;;4.30;;
64873;SDS011;51367;45.204;38.576;2023-06-14T06:24:18;5.03;;;4.53;;
64873;SDS011;51367;45.204;38.576;2023-06-14T06:26:44;5.47;;;3.90;;
64873;SDS011;51367;45.204;38.576;2023-06-14T06:29:10;6.35;;;4.60;;
64873;SDS011;51367;45.204;38.576;2023-06-14T06:31:36;5.47;;;4.43;;
64873;SDS011;51367;45.204;38.576;2023-06-14T06:34:02;6.65;;;4.53;;
64873;SDS011;51367;45.204;38.576;2023-06-14T06:39:13;6.07;;;4.45;;
64873;SDS011;51367;45.204;38.576;2023-06-14T06:41:40;5.90;;;4.47;;
64873;SDS011;51367;45.204;38.576;2023-06-14T06:44:06;5.57;;;3.97;;
64873;SDS011;51367;45.204;38.576;2023-06-14T06:46:32;5.68;;;4.47;;
64873;SDS011;51367;45.204;38.576;2023-06-14T06:49:00;4.47;;;4.05;;
64873;SDS011;51367;45.204;38.576;2023-06-14T06:51:26;11.35;;;4.93;;
64873;SDS011;51367;45.204;38.576;2023-06-14T06:53:52;4.07;;;3.67;;
64873;SDS011;51367;45.204;38.576;2023-06-14T06:56:19;4.43;;;4.03;;
64873;SDS011;51367;45.204;38.576;2023-06-14T06:58:51;4.00;;;3.63;;
64873;SDS011;51367;45.204;38.576;2023-06-14T07:01:17;5.57;;;4.07;;
64873;SDS011;51367;45.204;38.576;2023-06-14T07:03:45;5.60;;;3.80;;
64873;SDS011;51367;45.204;38.576;2023-06-14T07:06:29;6.15;;;4.40;;
64873;SDS011;51367;45.204;38.576;2023-06-14T07:08:55;5.93;;;3.80;;
64873;SDS011;51367;45.204;38.576;2023-06-14T07:11:26;6.85;;;4.03;;
64873;SDS011;51367;45.204;38.576;2023-06-14T07:13:53;8.52;;;3.78;;
64873;SDS011;51367;45.204;38.576;2023-06-14T07:16:18;6.10;;;4.03;;
64873;SDS011;51367;45.204;38.576;2023-06-14T07:18:44;3.65;;;3.35;;
64873;SDS011;51367;45.204;38.576;2023-06-14T07:21:10;6.43;;;3.90;;
64873;SDS011;51367;45.204;38.576;2023-06-14T07:23:36;3.92;;;3.60;;
64873;SDS011;51367;45.204;38.576;2023-06-14T07:26:02;5.60;;;4.00;;
64873;SDS011;51367;45.204;38.576;2023-06-14T07:28:28;5.55;;;4.20;;
64873;SDS011;51367;45.204;38.576;2023-06-14T07:30:54;5.20;;;3.88;;
64873;SDS011;51367;45.204;38.576;2023-06-14T07:33:20;4.40;;;4.00;;
64873;SDS011;51367;45.204;38.576;2023-06-14T07:35:46;4.68;;;4.07;;
64873;SDS011;51367;45.204;38.576;2023-06-14T07:38:13;6.13;;;4.78;;
64873;SDS011;51367;45.204;38.576;2023-06-14T07:40:39;5.35;;;4.68;;
64873;SDS011;51367;45.204;38.576;2023-06-14T07:43:05;3.97;;;3.47;;
64873;SDS011;51367;45.204;38.576;2023-06-14T07:45:31;5.40;;;4.22;;
64873;SDS011;51367;45.204;38.576;2023-06-14T07:47:56;4.28;;;3.50;;
64873;SDS011;51367;45.204;38.576;2023-06-14T07:50:22;8.57;;;3.83;;
64873;SDS011;51367;45.204;38.576;2023-06-14T07:52:48;7.45;;;4.57;;
64873;SDS011;51367;45.204;38.576;2023-06-14T07:55:14;6.13;;;5.00;;
64873;SDS011;51367;45.204;38.576;2023-06-14T07:57:40;16.70;;;4.47;;
64873;SDS011;51367;45.204;38.576;2023-06-14T08:00:08;5.20;;;4.22;;
64873;SDS011;51367;45.204;38.576;2023-06-14T08:02:40;5.35;;;3.72;;
64873;SDS011;51367;45.204;38.576;2023-06-14T08:05:09;9.00;;;4.50;;
64873;SDS011;51367;45.204;38.576;2023-06-14T08:07:36;5.25;;;4.18;;
64873;SDS011;51367;45.204;38.576;2023-06-14T08:10:03;4.78;;;4.13;;
64873;SDS011;51367;45.204;38.576;2023-06-14T08:12:33;6.60;;;4.75;;
64873;SDS011;51367;45.204;38.576;2023-06-14T08:15:00;5.78;;;4.55;;
64873;SDS011;51367;45.204;38.576;2023-06-14T08:17:26;4.88;;;4.18;;
64873;SDS011;51367;45.204;38.576;2023-06-14T08:19:52;5.22;;;4.72;;
64873;SDS011;51367;45.204;38.576;2023-06-14T08:22:22;4.70;;;4.25;;
64873;SDS011;51367;45.204;38.576;2023-06-14T08:24:50;5.20;;;4.28;;
64873;SDS011;51367;45.204;38.576;2023-06-14T08:27:16;6.95;;;5.65;;
64873;SDS011;51367;45.204;38.576;2023-06-14T08:29:42;4.65;;;3.92;;
64873;SDS011;51367;45.204;38.576;2023-06-14T08:32:08;7.45;;;3.85;;
64873;SDS011;51367;45.204;38.576;2023-06-14T08:34:35;5.10;;;3.80;;
64873;SDS011;51367;45.204;38.576;2023-06-14T08:37:01;4.93;;;3.33;;
64873;SDS011;51367;45.204;38.576;2023-06-14T08:39:27;3.92;;;3.38;;
64873;SDS011;51367;45.204;38.576;2023-06-14T08:41:53;3.15;;;2.90;;
64873;SDS011;51367;45.204;38.576;2023-06-14T08:44:22;6.88;;;3.97;;
64873;SDS011;51367;45.204;38.576;2023-06-14T08:46:48;4.75;;;3.42;;
64873;SDS011;51367;45.204;38.576;2023-06-14T08:49:15;8.10;;;3.45;;
64873;SDS011;51367;45.204;38.576;2023-06-14T08:51:42;3.47;;;3.13;;
64873;SDS011;51367;45.204;38.576;2023-06-14T08:54:10;8.65;;;3.25;;
64873;SDS011;51367;45.204;38.576;2023-06-14T08:56:37;5.97;;;2.95;;
64873;SDS011;51367;45.204;38.576;2023-06-14T08:59:03;3.45;;;2.85;;
64873;SDS011;51367;45.204;38.576;2023-06-14T09:01:35;8.20;;;3.17;;
64873;SDS011;51367;45.204;38.576;2023-06-14T09:04:02;3.85;;;3.13;;
64873;SDS011;51367;45.204;38.576;2023-06-14T09:06:31;4.15;;;2.95;;
64873;SDS011;51367;45.204;38.576;2023-06-14T09:08:58;2.50;;;2.30;;
64873;SDS011;51367;45.204;38.576;2023-06-14T09:11:24;3.75;;;2.53;;
64873;SDS011;51367;45.204;38.576;2023-06-14T09:13:52;14.30;;;2.67;;
64873;SDS011;51367;45.204;38.576;2023-06-14T09:16:18;4.20;;;2.60;;
64873;SDS011;51367;45.204;38.576;2023-06-14T09:18:44;2.50;;;2.30;;
64873;SDS011;51367;45.204;38.576;2023-06-14T09:21:16;3.60;;;2.40;;
64873;SDS011;51367;45.204;38.576;2023-06-14T09:23:43;2.17;;;1.98;;
64873;SDS011;51367;45.204;38.576;2023-06-14T09:26:14;3.30;;;2.13;;
64873;SDS011;51367;45.204;38.576;2023-06-14T09:28:42;2.20;;;2.00;;
64873;SDS011;51367;45.204;38.576;2023-06-14T09:31:16;2.03;;;1.80;;
64873;SDS011;51367;45.204;38.576;2023-06-14T09:33:46;3.80;;;2.15;;
64873;SDS011;51367;45.204;38.576;2023-06-14T09:38:57;1.98;;;1.77;;
64873;SDS011;51367;45.204;38.576;2023-06-14T09:41:34;6.10;;;2.13;;
64873;SDS011;51367;45.204;38.576;2023-06-14T09:44:01;2.25;;;2.05;;
64873;SDS011;51367;45.204;38.576;2023-06-14T09:46:32;2.60;;;2.20;;
64873;SDS011;51367;45.204;38.576;2023-06-14T09:48:58;6.18;;;2.28;;
64873;SDS011;51367;45.204;38.576;2023-06-14T09:51:25;1.88;;;1.77;;
64873;SDS011;51367;45.204;38.576;2023-06-14T09:53:53;2.17;;;1.90;;
64873;SDS011;51367;45.204;38.576;2023-06-14T09:56:44;2.83;;;1.85;;
64873;SDS011;51367;45.204;38.576;2023-06-14T09:59:11;2.30;;;1.98;;
64873;SDS011;51367;45.204;38.576;2023-06-14T10:01:42;3.53;;;2.33;;
64873;SDS011;51367;45.204;38.576;2023-06-14T10:04:09;2.05;;;1.88;;
64873;SDS011;51367;45.204;38.576;2023-06-14T10:06:36;4.88;;;2.50;;
64873;SDS011;51367;45.204;38.576;2023-06-14T10:09:07;2.55;;;1.98;;
64873;SDS011;51367;45.204;38.576;2023-06-14T10:11:34;6.15;;;2.80;;
64873;SDS011;51367;45.204;38.576;2023-06-14T10:14:01;3.55;;;2.45;;
64873;SDS011;51367;45.204;38.576;2023-06-14T10:22:04;2.85;;;1.90;;
64873;SDS011;51367;45.204;38.576;2023-06-14T10:24:38;5.18;;;3.33;;
64873;SDS011;51367;45.204;38.576;2023-06-14T10:27:07;5.40;;;3.65;;
64873;SDS011;51367;45.204;38.576;2023-06-14T10:30:21;3.20;;;2.28;;
64873;SDS011;51367;45.204;38.576;2023-06-14T10:32:21;4.05;;;2.50;;
64873;SDS011;51367;45.204;38.576;2023-06-14T10:34:53;1.60;;;1.50;;
64873;SDS011;51367;45.204;38.576;2023-06-14T10:37:40;3.13;;;1.50;;
64873;SDS011;51367;45.204;38.576;2023-06-14T10:40:06;2.05;;;1.50;;
64873;SDS011;51367;45.204;38.576;2023-06-14T10:42:34;1.63;;;1.52;;
64873;SDS011;51367;45.204;38.576;2023-06-14T10:45:00;1.50;;;1.40;;
64873;SDS011;51367;45.204;38.576;2023-06-14T10:47:30;4.63;;;2.67;;
64873;SDS011;51367;45.204;38.576;2023-06-14T10:50:02;4.25;;;2.95;;
64873;SDS011;51367;45.204;38.576;2023-06-14T10:52:39;5.97;;;1.73;;
64873;SDS011;51367;45.204;38.576;2023-06-14T10:55:14;14.13;;;2.78;;
64873;SDS011;51367;45.204;38.576;2023-06-14T10:57:48;5.38;;;3.63;;
64873;SDS011;51367;45.204;38.576;2023-06-14T11:00:18;5.32;;;3.33;;
64873;SDS011;51367;45.204;38.576;2023-06-14T11:05:42;5.45;;;2.72;;
64873;SDS011;51367;45.204;38.576;2023-06-14T11:11:05;11.32;;;3.90;;
64873;SDS011;51367;45.204;38.576;2023-06-14T11:13:32;6.63;;;1.73;;
64873;SDS011;51367;45.204;38.576;2023-06-14T11:15:59;1.70;;;1.60;;
64873;SDS011;51367;45.204;38.576;2023-06-14T11:18:25;1.52;;;1.42;;
64873;SDS011;51367;45.204;38.576;2023-06-14T11:20:53;2.55;;;2.05;;
64873;SDS011;51367;45.204;38.576;2023-06-14T11:23:19;3.28;;;2.10;;
64873;SDS011;51367;45.204;38.576;2023-06-14T11:25:49;2.97;;;2.60;;
64873;SDS011;51367;45.204;38.576;2023-06-14T11:28:16;2.83;;;2.38;;
64873;SDS011;51367;45.204;38.576;2023-06-14T11:30:45;6.85;;;2.40;;
64873;SDS011;51367;45.204;38.576;2023-06-14T11:33:15;3.13;;;2.78;;
64873;SDS011;51367;45.204;38.576;2023-06-14T11:35:43;2.45;;;2.17;;
64873;SDS011;51367;45.204;38.576;2023-06-14T11:38:11;2.75;;;1.77;;
64873;SDS011;51367;45.204;38.576;2023-06-14T11:40:37;2.30;;;2.10;;
64873;SDS011;51367;45.204;38.576;2023-06-14T11:43:04;15.50;;;2.80;;
64873;SDS011;51367;45.204;38.576;2023-06-14T11:45:30;2.83;;;2.03;;
64873;SDS011;51367;45.204;38.576;2023-06-14T11:47:57;3.70;;;2.33;;
64873;SDS011;51367;45.204;38.576;2023-06-14T11:50:24;2.67;;;2.47;;
64873;SDS011;51367;45.204;38.576;2023-06-14T11:52:58;2.65;;;2.40;;
64873;SDS011;51367;45.204;38.576;2023-06-14T11:55:29;5.57;;;2.45;;
64873;SDS011;51367;45.204;38.576;2023-06-14T11:57:55;3.28;;;2.42;;
64873;SDS011;51367;45.204;38.576;2023-06-14T12:00:24;4.07;;;2.53;;
64873;SDS011;51367;45.204;38.576;2023-06-14T12:02:53;3.55;;;2.60;;
64873;SDS011;51367;45.204;38.576;2023-06-14T12:05:21;3.88;;;2.53;;
64873;SDS011;51367;45.204;38.576;2023-06-14T12:07:48;3.47;;;2.58;;
64873;SDS011;51367;45.204;38.576;2023-06-14T12:10:15;11.00;;;2.70;;
64873;SDS011;51367;45.204;38.576;2023-06-14T12:12:42;2.88;;;2.58;;
64873;SDS011;51367;45.204;38.576;2023-06-14T12:15:08;3.88;;;2.97;;
64873;SDS011;51367;45.204;38.576;2023-06-14T12:17:37;2.92;;;2.72;;
64873;SDS011;51367;45.204;38.576;2023-06-14T12:20:11;2.67;;;2.22;;
64873;SDS011;51367;45.204;38.576;2023-06-14T12:22:57;7.20;;;2.70;;
64873;SDS011;51367;45.204;38.576;2023-06-14T12:25:28;2.85;;;2.65;;
64873;SDS011;51367;45.204;38.576;2023-06-14T12:28:07;2.80;;;2.60;;
64873;SDS011;51367;45.204;38.576;2023-06-14T12:30:35;2.22;;;2.08;;
64873;SDS011;51367;45.204;38.576;2023-06-14T12:33:02;3.28;;;2.78;;
64873;SDS011;51367;45.204;38.576;2023-06-14T12:35:29;4.25;;;2.80;;
64873;SDS011;51367;45.204;38.576;2023-06-14T12:37:55;6.55;;;3.03;;
64873;SDS011;51367;45.204;38.576;2023-06-14T12:40:22;4.80;;;3.30;;
64873;SDS011;51367;45.204;38.576;2023-06-14T12:42:48;2.97;;;2.67;;
64873;SDS011;51367;45.204;38.576;2023-06-14T12:45:14;4.90;;;2.55;;
64873;SDS011;51367;45.204;38.576;2023-06-14T12:47:40;4.60;;;2.78;;
64873;SDS011;51367;45.204;38.576;2023-06-14T12:50:06;2.75;;;2.50;;
64873;SDS011;51367;45.204;38.576;2023-06-14T12:52:32;3.35;;;2.42;;
64873;SDS011;51367;45.204;38.576;2023-06-14T12:55:04;5.30;;;2.80;;
64873;SDS011;51367;45.204;38.576;2023-06-14T12:57:32;7.10;;;2.83;;
64873;SDS011;51367;45.204;38.576;2023-06-14T12:59:59;3.47;;;2.75;;
64873;SDS011;51367;45.204;38.576;2023-06-14T13:02:25;2.78;;;2.58;;
64873;SDS011;51367;45.204;38.576;2023-06-14T13:04:52;2.75;;;2.55;;
64873;SDS011;51367;45.204;38.576;2023-06-14T13:07:18;5.45;;;3.15;;
64873;SDS011;51367;45.204;38.576;2023-06-14T13:09:44;3.40;;;3.05;;
64873;SDS011;51367;45.204;38.576;2023-06-14T13:12:10;4.13;;;3.00;;
64873;SDS011;51367;45.204;38.576;2023-06-14T13:14:37;2.78;;;2.58;;
64873;SDS011;51367;45.204;38.576;2023-06-14T13:17:05;5.53;;;3.58;;
64873;SDS011;51367;45.204;38.576;2023-06-14T13:19:33;3.15;;;2.88;;
64873;SDS011;51367;45.204;38.576;2023-06-14T13:21:59;7.20;;;3.03;;
64873;SDS011;51367;45.204;38.576;2023-06-14T13:24:25;3.90;;;3.60;;
64873;SDS011;51367;45.204;38.576;2023-06-14T13:26:51;6.43;;;4.40;;
64873;SDS011;51367;45.204;38.576;2023-06-14T13:29:36;3.63;;;3.33;;
64873;SDS011;51367;45.204;38.576;2023-06-14T13:32:02;6.85;;;3.25;;
64873;SDS011;51367;45.204;38.576;2023-06-14T13:34:47;6.55;;;3.95;;
64873;SDS011;51367;45.204;38.576;2023-06-14T13:37:14;10.68;;;3.42;;
64873;SDS011;51367;45.204;38.576;2023-06-14T13:39:40;7.53;;;3.72;;
64873;SDS011;51367;45.204;38.576;2023-06-14T13:42:06;4.35;;;4.00;;
64873;SDS011;51367;45.204;38.576;2023-06-14T13:44:32;5.75;;;5.00;;
64873;SDS011;51367;45.204;38.576;2023-06-14T13:46:58;5.32;;;4.93;;
64873;SDS011;51367;45.204;38.576;2023-06-14T13:49:24;5.03;;;4.38;;
64873;SDS011;51367;45.204;38.576;2023-06-14T13:51:50;4.40;;;4.00;;
64873;SDS011;51367;45.204;38.576;2023-06-14T13:54:18;8.35;;;5.88;;
64873;SDS011;51367;45.204;38.576;2023-06-14T13:56:45;8.43;;;5.78;;
64873;SDS011;51367;45.204;38.576;2023-06-14T13:59:11;6.93;;;5.18;;
64873;SDS011;51367;45.204;38.576;2023-06-14T14:01:37;12.68;;;6.43;;
64873;SDS011;51367;45.204;38.576;2023-06-14T14:04:04;11.68;;;7.15;;
64873;SDS011;51367;45.204;38.576;2023-06-14T14:06:30;8.65;;;7.85;;
64873;SDS011;51367;45.204;38.576;2023-06-14T14:08:56;10.27;;;7.43;;
64873;SDS011;51367;45.204;38.576;2023-06-14T14:11:22;7.90;;;6.07;;
64873;SDS011;51367;45.204;38.576;2023-06-14T14:13:49;8.50;;;5.28;;
64873;SDS011;51367;45.204;38.576;2023-06-14T14:16:14;7.25;;;6.55;;
64873;SDS011;51367;45.204;38.576;2023-06-14T14:18:41;7.18;;;5.60;;
64873;SDS011;51367;45.204;38.576;2023-06-14T14:21:07;16.40;;;7.15;;
64873;SDS011;51367;45.204;38.576;2023-06-14T14:23:33;9.70;;;6.05;;
64873;SDS011;51367;45.204;38.576;2023-06-14T14:25:58;10.02;;;6.30;;
64873;SDS011;51367;45.204;38.576;2023-06-14T14:28:28;9.68;;;5.25;;
64873;SDS011;51367;45.204;38.576;2023-06-14T14:30:54;5.40;;;4.90;;
64873;SDS011;51367;45.204;38.576;2023-06-14T14:33:20;7.10;;;6.10;;
64873;SDS011;51367;45.204;38.576;2023-06-14T14:35:46;6.57;;;5.85;;
64873;SDS011;51367;45.204;38.576;2023-06-14T14:38:13;6.97;;;5.60;;
64873;SDS011;51367;45.204;38.576;2023-06-14T14:40:41;15.23;;;5.45;;
64873;SDS011;51367;45.204;38.576;2023-06-14T14:43:07;8.98;;;5.55;;
64873;SDS011;51367;45.204;38.576;2023-06-14T14:45:33;5.43;;;4.93;;
64873;SDS011;51367;45.204;38.576;2023-06-14T14:48:00;6.40;;;4.95;;
64873;SDS011;51367;45.204;38.576;2023-06-14T14:50:26;6.88;;;5.30;;
64873;SDS011;51367;45.204;38.576;2023-06-14T14:52:52;6.30;;;5.15;;
64873;SDS011;51367;45.204;38.576;2023-06-14T14:55:18;5.68;;;5.15;;
64873;SDS011;51367;45.204;38.576;2023-06-14T14:57:45;9.38;;;4.80;;
64873;SDS011;51367;45.204;38.576;2023-06-14T15:00:11;5.18;;;4.68;;
64873;SDS011;51367;45.204;38.576;2023-06-14T15:02:37;10.52;;;4.45;;
64873;SDS011;51367;45.204;38.576;2023-06-14T15:05:03;5.55;;;3.75;;
64873;SDS011;51367;45.204;38.576;2023-06-14T15:07:30;4.22;;;3.92;;
64873;SDS011;51367;45.204;38.576;2023-06-14T15:09:59;5.15;;;3.60;;